createdAt,value
2022-09-12T00:01:05.584Z,1.70
2022-09-12T00:03:33.525Z,2.03
2022-09-12T00:06:01.465Z,2.10
2022-09-12T00:08:29.348Z,2.00
2022-09-12T00:10:58.525Z,1.92
2022-09-12T00:13:26.324Z,2.20
2022-09-12T00:15:54.162Z,1.85
2022-09-12T00:18:21.991Z,1.77
2022-09-12T00:20:50.154Z,2.10
2022-09-12T00:23:18.032Z,2.00
2022-09-12T00:25:47.676Z,2.05
2022-09-12T00:28:19.107Z,1.50
2022-09-12T00:30:49.070Z,2.00
2022-09-12T00:33:18.832Z,1.95
2022-09-12T00:35:48.498Z,1.95
2022-09-12T00:38:17.844Z,2.15
2022-09-12T00:40:45.815Z,2.05
2022-09-12T00:43:16.628Z,2.08
2022-09-12T00:45:45.025Z,1.77
2022-09-12T00:48:24.435Z,2.10
2022-09-12T00:50:52.435Z,2.00
2022-09-12T00:53:20.386Z,1.98
2022-09-12T00:55:52.308Z,1.75
2022-09-12T00:58:24.378Z,2.38
2022-09-12T01:00:52.769Z,1.83
2022-09-12T01:03:23.337Z,2.50
2022-09-12T01:06:00.701Z,2.25
2022-09-12T01:08:30.316Z,2.33
2022-09-12T01:10:58.758Z,1.90
2022-09-12T01:13:29.108Z,2.50
2022-09-12T01:15:57.447Z,2.03
2022-09-12T01:18:32.615Z,2.28
2022-09-12T01:21:12.499Z,2.33
2022-09-12T01:24:25.291Z,2.22
2022-09-12T01:27:25.744Z,2.65
2022-09-12T01:30:31.571Z,2.10
2022-09-12T01:33:31.726Z,2.70
2022-09-12T01:36:17.145Z,2.33
2022-09-12T01:38:49.999Z,2.00
2022-09-12T01:41:26.060Z,2.15
2022-09-12T01:44:01.767Z,2.72
2022-09-12T01:46:36.839Z,2.50
2022-09-12T01:49:12.890Z,2.38
2022-09-12T01:51:45.446Z,2.63
2022-09-12T01:54:18.480Z,2.33
2022-09-12T01:56:50.903Z,3.30
2022-09-12T01:59:24.986Z,2.88
2022-09-12T02:02:00.518Z,2.67
2022-09-12T02:04:34.264Z,3.08
2022-09-12T02:07:09.720Z,2.55
2022-09-12T02:09:42.799Z,2.90
2022-09-12T02:12:15.056Z,2.75
2022-09-12T02:14:47.482Z,3.13
2022-09-12T02:17:21.055Z,3.28
2022-09-12T02:19:53.975Z,2.80
2022-09-12T02:22:26.371Z,2.80
2022-09-12T02:24:59.913Z,2.75
2022-09-12T02:27:34.704Z,3.10
2022-09-12T02:30:02.675Z,2.90
2022-09-12T02:32:39.131Z,2.83
2022-09-12T02:35:12.124Z,3.05
2022-09-12T02:37:57.147Z,2.78
2022-09-12T02:40:25.819Z,3.13
2022-09-12T02:42:53.877Z,2.45
2022-09-12T02:45:23.254Z,2.78
2022-09-12T02:48:28.548Z,3.03
2022-09-12T02:50:57.355Z,3.30
2022-09-12T02:53:28.506Z,2.70
2022-09-12T02:55:56.571Z,2.90
2022-09-12T02:58:27.053Z,2.90
2022-09-12T03:01:06.081Z,2.88
2022-09-12T03:03:53.623Z,3.05
2022-09-12T03:06:31.970Z,3.25
2022-09-12T03:09:10.488Z,3.30
2022-09-12T03:11:52.077Z,2.78
2022-09-12T03:14:35.685Z,2.72
2022-09-12T03:19:47.515Z,2.97
2022-09-12T03:22:21.694Z,2.90
2022-09-12T03:24:55.419Z,3.15
2022-09-12T03:27:31.092Z,3.35
2022-09-12T03:30:00.134Z,3.13
2022-09-12T03:32:45.297Z,3.03
2022-09-12T03:35:17.928Z,2.72
2022-09-12T03:37:48.626Z,2.88
2022-09-12T03:40:16.820Z,3.20
2022-09-12T03:42:44.814Z,3.08
2022-09-12T03:45:13.084Z,2.70
2022-09-12T03:47:41.306Z,2.65
2022-09-12T03:50:09.653Z,2.70
2022-09-12T03:52:38.852Z,3.05
2022-09-12T03:55:07.848Z,3.40
2022-09-12T03:57:35.697Z,3.38
2022-09-12T04:00:04.847Z,2.72
2022-09-12T04:02:40.438Z,2.88
2022-09-12T04:05:08.645Z,3.05
2022-09-12T04:07:37.849Z,2.67
2022-09-12T04:10:06.436Z,3.08
2022-09-12T04:12:35.570Z,2.92
2022-09-12T04:15:03.474Z,2.97
2022-09-12T04:17:31.350Z,3.38
2022-09-12T04:19:59.157Z,2.90
2022-09-12T04:22:27.012Z,3.47
2022-09-12T04:24:56.274Z,3.58
2022-09-12T04:27:24.105Z,3.20
2022-09-12T04:29:51.953Z,2.85
2022-09-12T04:32:20.011Z,3.30
2022-09-12T04:34:47.865Z,3.15
2022-09-12T04:37:16.841Z,3.65
2022-09-12T04:39:44.776Z,3.72
2022-09-12T04:42:13.996Z,3.38
2022-09-12T04:44:41.852Z,3.53
2022-09-12T04:47:09.703Z,3.20
2022-09-12T04:49:37.694Z,3.50
2022-09-12T04:52:05.695Z,3.72
2022-09-12T04:54:34.796Z,3.40
2022-09-12T04:57:02.631Z,3.67
2022-09-12T04:59:31.876Z,3.47
2022-09-12T05:01:59.883Z,4.30
2022-09-12T05:04:27.830Z,3.65
2022-09-12T05:06:55.667Z,3.35
2022-09-12T05:09:23.600Z,3.72
2022-09-12T05:12:06.881Z,3.60
2022-09-12T05:14:36.256Z,3.88
2022-09-12T05:17:06.018Z,4.10
2022-09-12T05:19:34.106Z,4.00
2022-09-12T05:22:02.496Z,3.90
2022-09-12T05:24:30.436Z,3.65
2022-09-12T05:26:58.253Z,3.63
2022-09-12T05:29:26.285Z,4.20
2022-09-12T05:31:55.528Z,4.40
2022-09-12T05:34:23.687Z,4.07
2022-09-12T05:36:51.519Z,3.95
2022-09-12T05:39:19.538Z,4.90
2022-09-12T05:41:47.535Z,5.38
2022-09-12T05:44:15.905Z,4.90
2022-09-12T05:46:45.471Z,4.50
2022-09-12T05:49:14.872Z,5.00
2022-09-12T05:51:44.468Z,4.50
2022-09-12T05:54:14.349Z,5.05
2022-09-12T05:56:44.308Z,5.00
2022-09-12T05:59:14.234Z,4.82
2022-09-12T06:01:42.330Z,4.63
2022-09-12T06:04:10.723Z,4.90
2022-09-12T06:06:43.494Z,4.50
2022-09-12T06:09:12.042Z,4.57
2022-09-12T06:11:41.867Z,4.50
2022-09-12T06:14:11.674Z,4.43
2022-09-12T06:16:40.735Z,4.85
2022-09-12T06:19:13.902Z,4.85
2022-09-12T06:21:43.760Z,4.68
2022-09-12T06:24:12.093Z,4.68
2022-09-12T06:26:40.017Z,5.25
2022-09-12T06:29:08.478Z,5.20
2022-09-12T06:31:38.799Z,5.22
2022-09-12T06:34:08.432Z,5.80
2022-09-12T06:36:38.880Z,5.07
2022-09-12T06:39:11.038Z,5.18
2022-09-12T06:41:43.522Z,5.47
2022-09-12T06:44:14.016Z,4.70
2022-09-12T06:46:41.906Z,5.00
2022-09-12T06:49:10.051Z,5.03
2022-09-12T06:51:38.024Z,4.30
2022-09-12T06:54:06.464Z,4.65
2022-09-12T06:56:35.965Z,4.40
2022-09-12T06:59:03.819Z,4.90
2022-09-12T07:01:33.180Z,4.80
2022-09-12T07:04:03.097Z,4.93
2022-09-12T07:06:32.592Z,4.85
2022-09-12T07:09:01.310Z,5.05
2022-09-12T07:11:31.850Z,5.07
2022-09-12T07:14:03.123Z,4.93
2022-09-12T07:16:31.143Z,5.20
2022-09-12T07:19:01.349Z,5.93
2022-09-12T07:21:29.947Z,5.25
2022-09-12T07:23:58.785Z,5.65
2022-09-12T07:26:29.487Z,5.15
2022-09-12T07:29:18.643Z,5.00
2022-09-12T07:31:48.417Z,5.20
2022-09-12T07:34:17.935Z,5.05
2022-09-12T07:36:45.736Z,4.40
2022-09-12T07:39:13.584Z,4.60
2022-09-12T07:41:41.865Z,5.15
2022-09-12T07:44:09.756Z,5.07
2022-09-12T07:46:37.810Z,5.00
2022-09-12T07:49:08.449Z,5.22
2022-09-12T07:51:36.543Z,4.03
2022-09-12T07:54:09.275Z,4.20
2022-09-12T07:56:39.323Z,5.35
2022-09-12T07:59:07.820Z,4.93
2022-09-12T08:01:36.299Z,4.50
2022-09-12T08:04:05.274Z,3.70
2022-09-12T08:06:36.081Z,3.72
2022-09-12T08:09:05.717Z,3.72
2022-09-12T08:11:33.616Z,4.00
2022-09-12T08:14:03.054Z,3.65
2022-09-12T08:16:33.117Z,3.63
2022-09-12T08:19:02.260Z,2.55
2022-09-12T08:21:31.802Z,2.63
2022-09-12T08:24:03.317Z,2.47
2022-09-12T08:26:31.936Z,2.22
2022-09-12T08:29:00.546Z,2.38
2022-09-12T08:31:29.431Z,2.13
2022-09-12T08:33:58.678Z,1.75
2022-09-12T08:36:29.574Z,1.65
2022-09-12T08:39:00.397Z,1.73
2022-09-12T08:41:34.845Z,1.70
2022-09-12T08:44:19.866Z,1.67
2022-09-12T08:47:01.919Z,1.25
2022-09-12T08:49:33.733Z,1.40
2022-09-12T08:52:08.088Z,1.50
2022-09-12T08:54:36.199Z,1.70
2022-09-12T08:57:07.762Z,1.27
2022-09-12T08:59:39.542Z,1.02
2022-09-12T09:02:30.596Z,1.05
2022-09-12T09:05:06.416Z,1.20
2022-09-12T09:08:05.458Z,0.77
2022-09-12T09:10:42.152Z,1.10
2022-09-12T09:13:39.501Z,0.93
2022-09-12T09:16:11.979Z,0.80
2022-09-12T09:18:41.265Z,0.83
2022-09-12T09:21:21.652Z,0.80
2022-09-12T09:23:54.944Z,0.93
2022-09-12T09:29:03.386Z,1.05
2022-09-12T09:31:35.344Z,1.00
2022-09-12T09:34:07.009Z,0.90
2022-09-12T09:36:44.024Z,1.10
2022-09-12T09:39:22.003Z,1.33
2022-09-12T09:42:00.783Z,1.75
2022-09-12T09:44:30.849Z,1.30
2022-09-12T09:47:00.772Z,1.10
2022-09-12T09:49:32.283Z,1.17
2022-09-12T09:52:02.005Z,1.10
2022-09-12T09:54:35.415Z,1.65
2022-09-12T09:57:05.072Z,1.35
2022-09-12T09:59:35.166Z,1.10
2022-09-12T10:02:24.028Z,1.65
2022-09-12T10:04:56.228Z,1.30
2022-09-12T10:07:25.594Z,1.20
2022-09-12T10:10:07.758Z,1.58
2022-09-12T10:12:36.357Z,1.40
2022-09-12T10:15:19.392Z,1.50
2022-09-12T10:17:49.805Z,1.25
2022-09-12T10:20:32.402Z,1.63
2022-09-12T10:23:02.358Z,1.08
2022-09-12T10:25:31.093Z,1.20
2022-09-12T10:28:03.003Z,1.00
2022-09-12T10:30:33.009Z,1.08
2022-09-12T10:33:10.073Z,1.63
2022-09-12T10:35:47.266Z,1.40
2022-09-12T10:38:22.865Z,1.45
2022-09-12T10:40:59.364Z,1.20
2022-09-12T10:43:33.659Z,1.20
2022-09-12T10:46:31.151Z,0.98
2022-09-12T10:49:26.489Z,1.00
2022-09-12T10:51:55.975Z,0.98
2022-09-12T10:54:27.391Z,1.00
2022-09-12T10:57:14.674Z,1.00
2022-09-12T10:59:59.776Z,0.98
2022-09-12T11:02:35.672Z,1.27
2022-09-12T11:05:11.841Z,1.17
2022-09-12T11:07:45.153Z,1.00
2022-09-12T11:12:54.408Z,0.93
2022-09-12T11:15:40.764Z,0.90
2022-09-12T11:18:20.888Z,1.02
2022-09-12T11:21:03.063Z,0.68
2022-09-12T11:23:53.590Z,0.82
2022-09-12T11:26:32.494Z,1.17
2022-09-12T11:29:10.951Z,1.20
2022-09-12T11:31:57.407Z,1.10
2022-09-12T11:34:38.746Z,0.73
2022-09-12T11:37:29.039Z,0.77
2022-09-12T11:40:00.565Z,0.90
2022-09-12T11:42:34.288Z,0.90
2022-09-12T11:45:09.144Z,1.10
2022-09-12T11:47:38.503Z,1.13
2022-09-12T11:50:26.680Z,1.00
2022-09-12T11:53:00.078Z,0.98
2022-09-12T11:57:59.518Z,1.48
2022-09-12T12:00:33.208Z,1.05
2022-09-12T12:03:10.173Z,0.65
2022-09-12T12:05:47.498Z,0.80
2022-09-12T12:08:15.966Z,1.17
2022-09-12T12:10:49.892Z,1.00
2022-09-12T12:13:21.000Z,0.90
2022-09-12T12:15:51.823Z,1.20
2022-09-12T12:18:23.821Z,0.90
2022-09-12T12:20:54.405Z,1.08
2022-09-12T12:23:28.534Z,0.82
2022-09-12T12:25:57.872Z,0.77
2022-09-12T12:29:01.870Z,0.82
2022-09-12T12:34:28.881Z,0.75
2022-09-12T12:36:59.120Z,1.00
2022-09-12T12:40:01.130Z,0.80
2022-09-12T12:43:07.542Z,0.77
2022-09-12T12:46:12.934Z,0.90
2022-09-12T12:49:07.030Z,1.10
2022-09-12T12:52:02.593Z,0.77
2022-09-12T12:54:50.089Z,0.63
2022-09-12T12:57:29.891Z,1.10
2022-09-12T13:00:02.406Z,0.70
2022-09-12T13:02:35.839Z,0.82
2022-09-12T13:05:08.699Z,0.80
2022-09-12T13:07:41.537Z,0.77
2022-09-12T13:10:11.601Z,0.68
2022-09-12T13:12:47.347Z,0.88
2022-09-12T13:15:49.791Z,0.80
2022-09-12T13:18:25.191Z,0.50
2022-09-12T13:20:59.483Z,0.90
2022-09-12T13:23:33.660Z,0.85
2022-09-12T13:26:03.705Z,0.77
2022-09-12T13:28:32.620Z,0.70
2022-09-12T13:31:04.031Z,1.00
2022-09-12T13:33:42.377Z,0.90
2022-09-12T13:36:38.471Z,0.60
2022-09-12T13:39:17.328Z,1.08
2022-09-12T13:42:09.249Z,1.00
2022-09-12T13:44:44.066Z,0.90
2022-09-12T13:47:16.631Z,0.80
2022-09-12T13:49:46.356Z,0.80
2022-09-12T13:52:20.653Z,1.10
2022-09-12T13:54:53.107Z,0.93
2022-09-12T13:57:33.687Z,1.00
2022-09-12T14:00:05.909Z,0.80
2022-09-12T14:02:36.771Z,0.80
2022-09-12T14:05:13.251Z,0.90
2022-09-12T14:07:55.005Z,0.60
2022-09-12T14:10:29.182Z,0.90
2022-09-12T14:12:58.755Z,1.00
2022-09-12T14:15:29.957Z,1.17
2022-09-12T14:17:59.707Z,1.20
2022-09-12T14:20:31.112Z,1.00
2022-09-12T14:23:02.684Z,0.70
2022-09-12T14:25:39.049Z,0.88
2022-09-12T14:28:07.650Z,1.10
2022-09-12T14:30:37.422Z,0.88
2022-09-12T14:33:21.956Z,1.05
2022-09-12T14:35:51.697Z,0.90
2022-09-12T14:38:25.625Z,1.10
2022-09-12T14:41:02.436Z,0.90
2022-09-12T14:43:32.336Z,0.80
2022-09-12T14:46:03.235Z,0.90
2022-09-12T14:48:34.449Z,1.00
2022-09-12T14:51:02.537Z,0.80
2022-09-12T14:53:35.149Z,0.95
2022-09-12T14:56:12.616Z,0.73
2022-09-12T14:58:41.447Z,0.90
2022-09-12T15:01:33.190Z,0.60
2022-09-12T15:04:01.130Z,0.90
2022-09-12T15:06:31.197Z,0.90
2022-09-12T15:09:01.257Z,0.70
2022-09-12T15:11:30.495Z,1.08
2022-09-12T15:13:58.328Z,1.02
2022-09-12T15:16:26.376Z,0.93
2022-09-12T15:18:54.251Z,0.90
2022-09-12T15:21:22.506Z,1.00
2022-09-12T15:23:51.868Z,1.10
2022-09-12T15:26:22.509Z,1.27
2022-09-12T15:28:52.396Z,0.85
2022-09-12T15:31:25.248Z,0.95
2022-09-12T15:33:53.500Z,0.90
2022-09-12T15:36:22.897Z,0.70
2022-09-12T15:38:51.684Z,0.90
2022-09-12T15:41:21.800Z,1.00
2022-09-12T15:43:51.735Z,1.15
2022-09-12T15:46:20.212Z,1.00
2022-09-12T15:48:48.190Z,1.40
2022-09-12T15:51:17.780Z,1.02
2022-09-12T15:53:46.609Z,1.08
2022-09-12T15:56:15.739Z,1.02
2022-09-12T15:58:57.735Z,1.02
2022-09-12T16:01:29.355Z,1.10
2022-09-12T16:03:57.421Z,1.20
2022-09-12T16:06:25.287Z,1.30
2022-09-12T16:08:53.284Z,1.20
2022-09-12T16:11:23.104Z,1.00
2022-09-12T16:13:52.612Z,1.00
2022-09-12T16:16:20.838Z,1.02
2022-09-12T16:18:50.224Z,1.08
2022-09-12T16:21:18.074Z,1.17
2022-09-12T16:23:46.252Z,1.25
2022-09-12T16:26:14.369Z,2.08
2022-09-12T16:28:42.609Z,1.20
2022-09-12T16:31:13.155Z,1.17
2022-09-12T16:33:41.783Z,1.00
2022-09-12T16:36:13.133Z,1.20
2022-09-12T16:38:45.460Z,1.30
2022-09-12T16:41:14.163Z,1.13
2022-09-12T16:43:42.793Z,1.30
2022-09-12T16:46:13.418Z,1.20
2022-09-12T16:48:49.326Z,1.20
2022-09-12T16:51:22.946Z,1.23
2022-09-12T16:53:51.461Z,1.40
2022-09-12T16:56:19.765Z,1.50
2022-09-12T16:58:48.025Z,1.17
2022-09-12T17:01:18.799Z,1.17
2022-09-12T17:03:47.094Z,1.38
2022-09-12T17:06:16.654Z,1.17
2022-09-12T17:08:47.974Z,1.10
2022-09-12T17:11:18.516Z,1.35
2022-09-12T17:14:03.694Z,1.05
2022-09-12T17:16:34.116Z,1.70
2022-09-12T17:19:02.028Z,1.83
2022-09-12T17:21:29.941Z,1.30
2022-09-12T17:23:59.971Z,1.30
2022-09-12T17:26:28.301Z,1.00
2022-09-12T17:28:56.161Z,1.23
2022-09-12T17:31:24.202Z,1.23
2022-09-12T17:33:56.407Z,1.05
2022-09-12T17:36:24.311Z,1.55
2022-09-12T17:38:54.174Z,1.88
2022-09-12T17:41:25.367Z,1.58
2022-09-12T17:43:57.135Z,1.90
2022-09-12T17:46:27.360Z,2.00
2022-09-12T17:48:56.682Z,2.20
2022-09-12T17:51:25.953Z,2.00
2022-09-12T17:53:59.051Z,1.90
2022-09-12T17:56:29.553Z,2.58
2022-09-12T17:58:57.979Z,2.65
2022-09-12T18:01:44.524Z,2.33
2022-09-12T18:04:12.409Z,2.58
2022-09-12T18:06:40.854Z,3.70
2022-09-12T18:09:10.505Z,3.42
2022-09-12T18:11:39.802Z,4.18
2022-09-12T18:14:11.331Z,3.22
2022-09-12T18:16:41.442Z,3.75
2022-09-12T18:19:09.338Z,4.20
2022-09-12T18:21:37.341Z,4.40
2022-09-12T18:24:05.663Z,4.15
2022-09-12T18:26:34.502Z,3.75
2022-09-12T18:29:03.729Z,3.58
2022-09-12T18:31:32.017Z,3.50
2022-09-12T18:34:01.073Z,3.20
2022-09-12T18:36:28.923Z,3.28
2022-09-12T18:38:58.653Z,3.28
2022-09-12T18:41:28.799Z,3.00
2022-09-12T18:43:58.110Z,2.63
2022-09-12T18:46:29.292Z,3.03
2022-09-12T18:48:58.391Z,3.15
2022-09-12T18:51:31.333Z,3.05
2022-09-12T18:54:01.310Z,2.85
2022-09-12T18:56:32.883Z,3.53
2022-09-12T18:59:02.729Z,3.05
2022-09-12T19:01:33.269Z,2.85
2022-09-12T19:04:04.664Z,3.58
2022-09-12T19:06:34.208Z,3.20
2022-09-12T19:09:07.421Z,3.92
2022-09-12T19:11:37.344Z,3.67
2022-09-12T19:14:05.841Z,3.40
2022-09-12T19:16:35.959Z,3.70
2022-09-12T19:19:04.037Z,3.20
2022-09-12T19:21:33.068Z,3.55
2022-09-12T19:24:02.396Z,3.17
2022-09-12T19:26:30.530Z,3.53
2022-09-12T19:28:58.568Z,3.97
2022-09-12T19:31:26.798Z,4.07
2022-09-12T19:34:01.605Z,3.50
2022-09-12T19:36:46.698Z,3.75
2022-09-12T19:39:16.450Z,4.18
2022-09-12T19:41:44.386Z,3.72
2022-09-12T19:44:12.641Z,3.40
2022-09-12T19:46:40.780Z,3.42
2022-09-12T19:49:11.305Z,3.60
2022-09-12T19:51:39.244Z,3.13
2022-09-12T19:54:07.741Z,3.58
2022-09-12T19:56:35.973Z,3.80
2022-09-12T19:59:03.869Z,3.40
2022-09-12T20:01:32.461Z,3.35
2022-09-12T20:04:00.509Z,3.83
2022-09-12T20:06:29.898Z,3.60
2022-09-12T20:08:57.995Z,3.30
2022-09-12T20:11:26.021Z,3.70
2022-09-12T20:13:53.999Z,3.90
2022-09-12T20:16:24.473Z,2.95
2022-09-12T20:18:57.327Z,3.40
2022-09-12T20:21:31.243Z,3.17
2022-09-12T20:24:06.369Z,3.10
2022-09-12T20:26:34.923Z,2.95
2022-09-12T20:29:03.279Z,2.47
2022-09-12T20:31:32.025Z,3.50
2022-09-12T20:34:00.071Z,2.72
2022-09-12T20:36:28.004Z,2.88
2022-09-12T20:38:57.937Z,2.88
2022-09-12T20:41:28.889Z,2.85
2022-09-12T20:43:58.182Z,2.60
2022-09-12T20:46:27.519Z,3.00
2022-09-12T20:48:55.833Z,2.80
2022-09-12T20:51:24.574Z,2.60
2022-09-12T20:53:54.346Z,2.75
2022-09-12T20:56:22.681Z,2.58
2022-09-12T20:58:52.135Z,2.85
2022-09-12T21:01:20.672Z,3.33
2022-09-12T21:03:49.667Z,3.13
2022-09-12T21:06:18.816Z,2.80
2022-09-12T21:08:47.848Z,3.05
2022-09-12T21:11:16.419Z,2.60
2022-09-12T21:13:44.740Z,3.00
2022-09-12T21:16:15.482Z,2.28
2022-09-12T21:18:43.672Z,2.38
2022-09-12T21:21:13.086Z,2.88
2022-09-12T21:23:41.506Z,2.83
2022-09-12T21:26:09.730Z,2.58
2022-09-12T21:28:37.673Z,2.67
2022-09-12T21:31:06.058Z,2.90
2022-09-12T21:33:35.614Z,2.95
2022-09-12T21:36:04.701Z,2.67
2022-09-12T21:38:33.089Z,2.63
2022-09-12T21:41:06.368Z,2.42
2022-09-12T21:43:34.259Z,2.35
2022-09-12T21:46:03.018Z,2.70
2022-09-12T21:48:31.261Z,2.58
2022-09-12T21:51:00.890Z,2.90
2022-09-12T21:53:29.202Z,3.08
2022-09-12T21:56:01.890Z,2.92
2022-09-12T21:58:29.751Z,3.03
2022-09-12T22:00:57.808Z,2.47
2022-09-12T22:03:26.019Z,2.58
2022-09-12T22:05:58.049Z,2.55
2022-09-12T22:08:27.682Z,2.70
2022-09-12T22:11:00.472Z,2.60
2022-09-12T22:13:28.536Z,2.42
2022-09-12T22:15:56.984Z,2.42
2022-09-12T22:18:24.977Z,2.67
2022-09-12T22:20:59.943Z,2.60
2022-09-12T22:23:46.649Z,2.67
2022-09-12T22:26:15.566Z,2.38
2022-09-12T22:28:43.933Z,2.40
2022-09-12T22:31:12.673Z,2.08
2022-09-12T22:33:41.331Z,2.67
2022-09-12T22:36:10.193Z,2.40
2022-09-12T22:38:39.809Z,2.17
2022-09-12T22:41:09.196Z,2.40
2022-09-12T22:43:37.421Z,1.95
2022-09-12T22:46:07.621Z,2.10
2022-09-12T22:48:35.686Z,2.25
2022-09-12T22:51:03.533Z,2.20
2022-09-12T22:53:31.444Z,2.25
2022-09-12T22:56:00.635Z,2.33
2022-09-12T22:58:28.486Z,1.90
2022-09-12T23:00:56.394Z,2.42
2022-09-12T23:03:24.316Z,2.03
2022-09-12T23:05:52.405Z,2.22
2022-09-12T23:08:20.353Z,2.53
2022-09-12T23:10:48.190Z,2.53
2022-09-12T23:13:17.763Z,2.15
2022-09-12T23:15:45.578Z,2.17
2022-09-12T23:18:13.407Z,1.98
2022-09-12T23:20:41.243Z,2.20
2022-09-12T23:23:09.655Z,1.92
2022-09-12T23:25:37.965Z,2.30
2022-09-12T23:28:05.780Z,1.95
2022-09-12T23:30:34.953Z,2.05
2022-09-12T23:33:02.778Z,2.50
2022-09-12T23:35:30.614Z,2.20
2022-09-12T23:37:58.454Z,1.90
2022-09-12T23:40:26.330Z,2.30
2022-09-12T23:42:54.583Z,2.35
2022-09-12T23:45:22.490Z,2.47
2022-09-12T23:47:51.722Z,2.20
2022-09-12T23:50:19.560Z,1.95
2022-09-12T23:52:47.360Z,2.28
2022-09-12T23:55:15.221Z,2.08
2022-09-12T23:57:43.701Z,2.70
